Time;durP1;ratioP1;P1;durP2;ratioP2;P2;SDS_P1;SDS_P2;PMS_P1;PMS_P2;Temp;Humidity;BMP_temperature;BMP_pressure;BME280_temperature;BME280_humidity;BME280_pressure;Samples;Min_cycle;Max_cycle;Signal;HPM_P1;HPM_P2
2023/10/26 00:04:44;;;;;;;14.73;4.80;;;8.10;1.00;;;;;;9819452;30;20209;-81
2023/10/26 00:10:06;;;;;;;17.53;5.83;;;8.20;1.00;;;;;;9805233;30;20208;-81
2023/10/26 00:15:28;;;;;;;19.93;6.03;;;8.20;1.00;;;;;;9808607;30;20239;-81
2023/10/26 00:20:56;;;;;;;9.40;3.80;;;8.00;1.00;;;;;;9805208;30;20502;-80
2023/10/26 00:26:17;;;;;;;5.50;3.63;;;8.10;1.00;;;;;;9793425;30;20401;-81
2023/10/26 00:31:43;;;;;;;6.40;4.13;;;8.10;1.00;;;;;;9794154;30;20567;-81
2023/10/26 00:37:06;;;;;;;7.10;4.23;;;8.10;1.00;;;;;;9805161;30;20240;-81
2023/10/26 00:42:27;;;;;;;6.73;4.17;;;8.20;12.00;;;;;;9805244;30;20216;-81
2023/10/26 00:47:50;;;;;;;10.60;4.60;;;8.20;1.00;;;;;;9818318;30;20207;-80
2023/10/26 00:53:12;;;;;;;17.27;5.87;;;8.20;1.00;;;;;;9805728;30;20506;-80
2023/10/26 00:58:34;;;;;;;12.70;4.73;;;8.20;1.00;;;;;;9817112;30;20395;-80
2023/10/26 01:03:56;;;;;;;8.50;4.13;;;8.20;1.00;;;;;;9817136;30;20238;-78
2023/10/26 01:09:17;;;;;;;7.80;4.00;;;8.10;1.00;;;;;;9801799;30;20211;-79
2023/10/26 01:14:39;;;;;;;8.90;4.30;;;8.10;1.00;;;;;;9819251;30;20251;-79
2023/10/26 01:20:01;;;;;;;6.90;3.13;;;8.10;1.00;;;;;;9803536;30;20523;-79
2023/10/26 01:25:22;;;;;;;3.10;2.80;;;8.10;1.00;;;;;;9804503;30;20199;-80
2023/10/26 01:30:43;;;;;;;4.30;2.93;;;8.10;1.00;;;;;;9816636;30;20211;-80
2023/10/26 01:36:05;;;;;;;3.10;2.50;;;8.10;1.00;;;;;;9817292;30;20248;-81
2023/10/26 01:41:31;;;;;;;3.87;2.67;;;8.00;1.00;;;;;;9811169;30;20215;-80
2023/10/26 01:46:52;;;;;;;3.33;2.57;;;8.00;1.00;;;;;;9823947;30;20289;-80
2023/10/26 01:52:13;;;;;;;3.73;2.60;;;8.00;1.00;;;;;;9823921;30;20276;-81
2023/10/26 01:57:34;;;;;;;3.00;2.70;;;8.00;1.00;;;;;;9810582;30;20476;-80
2023/10/26 02:02:56;;;;;;;3.87;2.77;;;7.90;1.00;;;;;;9798055;30;20319;-80
2023/10/26 02:08:17;;;;;;;3.43;3.00;;;7.80;1.00;;;;;;9810683;30;20236;-80
2023/10/26 02:13:40;;;;;;;4.27;3.73;;;7.80;1.00;;;;;;9825269;30;20212;-81
2023/10/26 02:19:01;;;;;;;3.73;3.33;;;7.80;1.00;;;;;;9822046;30;20236;-81
2023/10/26 02:24:22;;;;;;;3.50;3.17;;;7.80;1.00;;;;;;9810013;30;20375;-81
2023/10/26 02:29:44;;;;;;;5.83;3.53;;;8.00;1.00;;;;;;9809970;30;20221;-80
2023/10/26 02:35:06;;;;;;;4.10;3.10;;;8.00;1.00;;;;;;9809914;30;20233;-81
2023/10/26 02:40:27;;;;;;;4.27;3.47;;;7.90;1.00;;;;;;9809281;30;20219;-81
2023/10/26 02:45:58;;;;;;;5.30;4.43;;;7.80;1.00;;;;;;9821827;30;20223;-80
2023/10/26 02:51:20;;;;;;;4.00;3.33;;;7.80;1.00;;;;;;9821660;30;20208;-81
2023/10/26 02:56:41;;;;;;;4.63;3.70;;;8.00;1.00;;;;;;9796622;30;20244;-81
2023/10/26 03:02:05;;;;;;;4.87;3.60;;;8.00;1.00;;;;;;9820626;30;20236;-78
2023/10/26 03:07:26;;;;;;;3.70;3.07;;;7.90;1.00;;;;;;9820559;30;20386;-81
2023/10/26 03:12:48;;;;;;;4.20;3.47;;;7.90;1.00;;;;;;9820850;30;20292;-81
2023/10/26 03:18:09;;;;;;;5.43;3.50;;;7.90;1.00;;;;;;9787891;30;20261;-80
2023/10/26 03:23:32;;;;;;;4.13;3.20;;;7.90;1.00;;;;;;9807849;30;20210;-80
2023/10/26 03:28:53;;;;;;;4.70;3.70;;;7.90;1.00;;;;;;9795783;30;20205;-80
2023/10/26 03:34:14;;;;;;;5.07;3.67;;;7.90;1.00;;;;;;9822171;30;20770;-82
2023/10/26 03:39:36;;;;;;;8.60;5.40;;;7.90;1.00;;;;;;9807273;30;20260;-81
2023/10/26 03:44:57;;;;;;;16.27;8.43;;;7.80;1.00;;;;;;9794943;30;20205;-80
2023/10/26 03:50:18;;;;;;;110.00;38.30;;;7.90;1.00;;;;;;9807120;30;20456;-81
2023/10/26 03:55:40;;;;;;;31.87;13.93;;;7.80;1.00;;;;;;9818575;30;20237;-80
2023/10/26 04:01:02;;;;;;;11.30;6.30;;;7.80;1.00;;;;;;9817359;30;20245;-80
2023/10/26 04:06:23;;;;;;;12.23;6.60;;;7.80;1.00;;;;;;9818506;30;20209;-81
2023/10/26 04:11:45;;;;;;;11.33;6.60;;;7.80;1.00;;;;;;9793926;30;20384;-80
2023/10/26 04:17:06;;;;;;;8.50;4.70;;;7.90;1.00;;;;;;9820849;30;20237;-80
2023/10/26 04:22:27;;;;;;;10.47;6.70;;;7.90;1.00;;;;;;9805820;30;20227;-80
2023/10/26 04:27:48;;;;;;;9.67;6.10;;;7.80;1.00;;;;;;9806260;30;20197;-80
2023/10/26 04:33:10;;;;;;;9.57;5.90;;;7.80;1.00;;;;;;9806352;30;20253;-80
2023/10/26 04:38:31;;;;;;;7.63;5.00;;;7.80;1.00;;;;;;9817492;30;20403;-80
2023/10/26 04:43:53;;;;;;;6.03;4.90;;;7.80;1.00;;;;;;9817716;30;20200;-81
2023/10/26 04:49:14;;;;;;;11.17;6.03;;;7.80;1.00;;;;;;9817986;30;20242;-81
2023/10/26 04:54:36;;;;;;;12.27;8.53;;;7.80;1.00;;;;;;9805048;30;20422;-81
2023/10/26 04:59:57;;;;;;;12.57;8.37;;;7.80;1.00;;;;;;9816516;30;20459;-80
2023/10/26 05:05:18;;;;;;;10.30;8.13;;;7.80;1.00;;;;;;9804529;30;20225;-80
2023/10/26 05:10:41;;;;;;;14.83;9.20;;;7.80;1.00;;;;;;9816925;30;20437;-81
2023/10/26 05:16:03;;;;;;;11.83;6.80;;;7.80;1.00;;;;;;9804149;30;20250;-82
2023/10/26 05:21:26;;;;;;;8.20;6.07;;;7.80;1.00;;;;;;9815896;30;20498;-81
2023/10/26 05:26:48;;;;;;;20.90;13.10;;;7.80;1.00;;;;;;9804427;30;20259;-81
2023/10/26 05:32:10;;;;;;;21.67;13.97;;;7.80;1.00;;;;;;9816693;30;20288;-82
2023/10/26 05:37:31;;;;;;;18.70;9.47;;;7.80;1.00;;;;;;9803376;30;20226;-81
2023/10/26 05:42:53;;;;;;;15.03;8.87;;;7.80;1.00;;;;;;9803906;30;20296;-81
2023/10/26 05:48:16;;;;;;;7.77;5.63;;;7.80;1.00;;;;;;9803731;30;20404;-81
2023/10/26 05:53:37;;;;;;;7.40;5.30;;;7.70;1.00;;;;;;9816056;30;20196;-81
2023/10/26 05:58:59;;;;;;;13.23;8.20;;;7.70;1.00;;;;;;9806778;30;20235;-82
2023/10/26 06:04:20;;;;;;;9.43;6.47;;;7.80;1.00;;;;;;9803210;30;20427;-82
2023/10/26 06:09:41;;;;;;;11.27;6.70;;;7.80;1.00;;;;;;9803224;30;20213;-81
2023/10/26 06:15:04;;;;;;;20.93;11.03;;;7.80;1.00;;;;;;9815368;30;20232;-82
2023/10/26 06:20:27;;;;;;;14.10;7.30;;;7.80;1.00;;;;;;9802731;30;20246;-81
2023/10/26 06:25:48;;;;;;;15.00;8.27;;;7.80;1.00;;;;;;9796746;30;20210;-81
2023/10/26 06:31:16;;;;;;;17.33;8.97;;;7.80;1.00;;;;;;9822034;30;20249;-82
2023/10/26 06:36:37;;;;;;;12.43;7.60;;;7.80;1.00;;;;;;9808851;30;20249;-81
2023/10/26 06:41:58;;;;;;;10.57;7.13;;;7.80;1.00;;;;;;9797109;30;20208;-81
2023/10/26 06:47:20;;;;;;;10.33;6.90;;;7.80;1.00;;;;;;9809040;30;20217;-81
2023/10/26 06:52:44;;;;;;;10.40;7.43;;;7.80;1.00;;;;;;9821713;30;20262;-81
2023/10/26 06:58:05;;;;;;;13.13;8.63;;;7.80;1.00;;;;;;9808240;30;20561;-80
2023/10/26 07:03:27;;;;;;;11.57;8.30;;;7.80;1.00;;;;;;9807878;30;20287;-81
2023/10/26 07:08:49;;;;;;;13.93;8.63;;;7.80;1.00;;;;;;9821328;30;20287;-80
2023/10/26 07:14:16;;;;;;;8.40;5.87;;;7.90;1.00;;;;;;9819933;30;20226;-80
2023/10/26 07:19:38;;;;;;;7.23;5.73;;;7.80;1.00;;;;;;9799064;30;20294;-80
2023/10/26 07:25:01;;;;;;;6.93;4.70;;;7.80;1.00;;;;;;9813944;30;20207;-79
2023/10/26 07:30:22;;;;;;;9.30;5.60;;;7.80;1.00;;;;;;9771176;30;20263;-81
2023/10/26 07:35:51;;;;;;;12.53;7.90;;;7.80;1.00;;;;;;9792952;30;20236;-80
2023/10/26 07:41:14;;;;;;;18.37;11.93;;;7.90;1.00;;;;;;9790660;30;20217;-80
2023/10/26 07:46:36;;;;;;;12.10;7.80;;;7.90;1.00;;;;;;9814821;30;20207;-80
2023/10/26 07:51:57;;;;;;;15.77;9.27;;;8.00;1.00;;;;;;9801215;30;20208;-81
2023/10/26 07:57:19;;;;;;;13.40;7.60;;;8.10;1.00;;;;;;9813894;30;20258;-81
2023/10/26 08:02:41;;;;;;;16.27;9.33;;;8.10;1.00;;;;;;9808680;30;20266;-80
2023/10/26 08:08:02;;;;;;;16.80;8.77;;;8.20;1.00;;;;;;9802984;30;20412;-82
2023/10/26 08:13:24;;;;;;;13.40;8.03;;;8.20;1.00;;;;;;9800866;30;20515;-80
2023/10/26 08:18:45;;;;;;;19.20;10.70;;;8.20;1.00;;;;;;9805295;30;20249;-79
2023/10/26 08:24:07;;;;;;;29.33;14.77;;;8.20;1.00;;;;;;9814297;30;20209;-80
2023/10/26 08:29:29;;;;;;;34.37;16.20;;;8.30;1.00;;;;;;9800394;30;20301;-80
2023/10/26 08:34:50;;;;;;;30.23;14.73;;;8.40;1.00;;;;;;9813338;30;20539;-86
2023/10/26 08:40:12;;;;;;;33.83;14.10;;;8.40;99.90;;;;;;9800060;30;20208;-82
2023/10/26 08:45:35;;;;;;;23.67;10.83;;;8.60;99.90;;;;;;9800602;30;20218;-78
2023/10/26 08:50:56;;;;;;;12.20;5.80;;;8.80;1.00;;;;;;9812393;30;20572;-78
2023/10/26 08:56:21;;;;;;;7.17;4.80;;;8.80;1.00;;;;;;9812517;30;20682;-78
2023/10/26 09:01:48;;;;;;;8.57;5.67;;;8.70;1.00;;;;;;9812916;30;20257;-79
2023/10/26 09:07:09;;;;;;;9.43;5.77;;;8.90;99.90;;;;;;9790740;30;20281;-79
2023/10/26 09:12:30;;;;;;;6.43;3.77;;;8.90;1.00;;;;;;9831952;30;20297;-78
2023/10/26 09:17:55;;;;;;;8.40;4.10;;;8.90;99.90;;;;;;9817315;30;20537;-87
2023/10/26 09:23:30;;;;;;;11.67;5.90;;;8.90;1.00;;;;;;9813728;30;20250;-84
2023/10/26 09:28:55;;;;;;;15.50;9.50;;;9.00;1.00;;;;;;9800550;30;20283;-79
2023/10/26 09:34:17;;;;;;;30.53;13.53;;;9.00;99.90;;;;;;9813334;30;20221;-79
2023/10/26 09:39:41;;;;;;;30.83;15.80;;;9.00;99.90;;;;;;9799715;30;20437;-79
2023/10/26 09:45:03;;;;;;;24.97;12.10;;;9.10;99.90;;;;;;9812870;30;20217;-77
2023/10/26 09:50:25;;;;;;;16.40;9.03;;;9.10;1.00;;;;;;9811393;30;20225;-81
2023/10/26 09:55:48;;;;;;;13.23;7.17;;;9.10;1.00;;;;;;9811201;30;20225;-83
2023/10/26 10:01:36;;;;;;;16.67;8.20;;;9.10;58.40;;;;;;9805534;30;20268;-79
2023/10/26 10:06:58;;;;;;;20.63;10.37;;;9.10;99.90;;;;;;9805985;30;20221;-85
2023/10/26 10:12:19;;;;;;;14.90;8.60;;;9.10;99.90;;;;;;9812332;30;20501;-77
2023/10/26 10:17:46;;;;;;;12.47;6.87;;;9.10;99.90;;;;;;9829593;30;20252;-77
2023/10/26 10:23:08;;;;;;;19.50;10.27;;;9.10;1.00;;;;;;9836129;30;20496;-82
2023/10/26 10:28:40;;;;;;;22.33;12.20;;;9.10;1.00;;;;;;9817066;30;20211;-79
2023/10/26 10:34:03;;;;;;;20.30;8.03;;;9.20;1.00;;;;;;9817497;30;20233;-81
2023/10/26 10:39:24;;;;;;;13.33;5.33;;;9.30;99.90;;;;;;9804774;30;20244;-80
2023/10/26 10:44:46;;;;;;;7.80;4.07;;;9.30;1.00;;;;;;9797129;30;20238;-79
2023/10/26 10:50:14;;;;;;;8.50;4.20;;;9.40;1.00;;;;;;9780025;30;20528;-79
2023/10/26 10:55:35;;;;;;;10.87;5.20;;;9.50;1.00;;;;;;9813803;30;20237;-80
2023/10/26 11:00:56;;;;;;;9.93;5.40;;;9.60;1.00;;;;;;9803928;30;20272;-83
2023/10/26 11:06:21;;;;;;;12.67;6.40;;;9.70;1.00;;;;;;9806570;30;20215;-83
2023/10/26 11:11:42;;;;;;;9.27;6.00;;;9.80;1.00;;;;;;9817310;30;20314;-84
2023/10/26 11:17:04;;;;;;;15.43;9.20;;;9.80;1.00;;;;;;9792771;30;20246;-82
2023/10/26 11:22:27;;;;;;;20.07;10.07;;;9.70;1.00;;;;;;9809312;30;20321;-80
2023/10/26 11:27:48;;;;;;;17.47;8.40;;;9.60;1.00;;;;;;9792285;30;20216;-84
2023/10/26 11:33:10;;;;;;;16.20;8.77;;;9.50;99.90;;;;;;9803835;30;20386;-79
2023/10/26 11:38:32;;;;;;;16.43;9.23;;;9.50;25.80;;;;;;9828002;30;20223;-82
2023/10/26 11:43:55;;;;;;;15.77;8.10;;;9.50;1.00;;;;;;9815531;30;20223;-83
2023/10/26 11:49:17;;;;;;;12.07;6.30;;;9.50;46.70;;;;;;9815660;30;20215;-86
2023/10/26 11:54:51;;;;;;;17.37;8.23;;;9.50;52.40;;;;;;9803238;30;20226;-85
2023/10/26 12:00:12;;;;;;;8.33;5.10;;;9.50;1.00;;;;;;9800770;30;20366;-83
2023/10/26 12:05:34;;;;;;;14.87;10.27;;;9.50;1.00;;;;;;9817547;30;20278;-79
2023/10/26 12:10:55;;;;;;;25.77;14.17;;;9.40;1.00;;;;;;9800860;30;20282;-84
2023/10/26 12:16:16;;;;;;;17.73;12.33;;;9.40;1.00;;;;;;9799606;30;20233;-85
2023/10/26 12:21:37;;;;;;;19.17;12.40;;;9.40;1.00;;;;;;9800257;30;20212;-83
2023/10/26 12:27:00;;;;;;;15.83;10.40;;;9.40;1.00;;;;;;9814050;30;20412;-82
2023/10/26 12:32:21;;;;;;;14.23;8.63;;;9.50;99.90;;;;;;9811570;30;20206;-82
2023/10/26 12:37:42;;;;;;;12.20;6.83;;;9.50;1.00;;;;;;9799881;30;20257;-78
2023/10/26 12:43:04;;;;;;;12.53;6.83;;;9.50;1.00;;;;;;9812468;30;20218;-82
2023/10/26 12:48:25;;;;;;;10.93;7.60;;;9.40;9.40;;;;;;9797551;30;20226;-79
2023/10/26 12:53:46;;;;;;;8.93;5.37;;;9.40;99.90;;;;;;9810873;30;20535;-78
2023/10/26 12:59:07;;;;;;;11.93;6.43;;;9.30;99.90;;;;;;9811437;30;20251;-79
2023/10/26 13:04:28;;;;;;;10.77;6.37;;;9.20;1.00;;;;;;9798612;30;20262;-82
2023/10/26 13:09:49;;;;;;;15.77;8.57;;;9.20;99.90;;;;;;9808201;30;20211;-80
2023/10/26 13:15:14;;;;;;;13.50;8.00;;;9.30;16.30;;;;;;9799640;30;20252;-78
2023/10/26 13:20:35;;;;;;;17.70;8.47;;;9.30;99.90;;;;;;9790088;30;20397;-81
2023/10/26 13:25:57;;;;;;;18.17;8.13;;;9.40;99.90;;;;;;9787520;30;20245;-77
2023/10/26 13:31:18;;;;;;;13.53;7.73;;;9.40;1.00;;;;;;9812697;30;20504;-81
2023/10/26 13:36:39;;;;;;;10.40;6.27;;;9.30;1.00;;;;;;9807348;30;20265;-81
2023/10/26 13:42:01;;;;;;;8.53;5.63;;;9.40;1.00;;;;;;9819808;30;20517;-84
2023/10/26 13:47:22;;;;;;;13.27;7.50;;;9.40;99.90;;;;;;9819412;30;20210;-77
2023/10/26 13:52:43;;;;;;;10.67;7.03;;;9.40;1.00;;;;;;9819964;30;20856;-77
2023/10/26 13:58:07;;;;;;;21.00;7.83;;;9.30;1.00;;;;;;9825485;30;20312;-77
2023/10/26 14:03:29;;;;;;;15.63;9.77;;;9.30;1.00;;;;;;9835987;30;20594;-76
2023/10/26 14:08:51;;;;;;;12.13;7.77;;;9.30;1.00;;;;;;9849716;30;20489;-83
2023/10/26 14:14:12;;;;;;;8.70;5.83;;;9.30;99.90;;;;;;9827593;30;20380;-78
2023/10/26 14:19:33;;;;;;;9.50;6.37;;;9.30;99.90;;;;;;9799024;30;20284;-80
2023/10/26 14:24:55;;;;;;;7.50;5.47;;;9.30;1.00;;;;;;9815602;30;20206;-78
2023/10/26 14:30:16;;;;;;;7.60;5.63;;;9.30;1.00;;;;;;9818384;30;20289;-81
2023/10/26 14:35:37;;;;;;;7.57;5.00;;;9.40;99.90;;;;;;9835417;30;20792;-83
2023/10/26 14:40:59;;;;;;;7.60;5.40;;;9.40;1.00;;;;;;9832962;30;20305;-81
2023/10/26 14:46:20;;;;;;;8.13;5.70;;;9.40;1.00;;;;;;9832883;30;20209;-80
2023/10/26 14:51:44;;;;;;;10.23;7.63;;;9.40;1.00;;;;;;9827033;30;20288;-79
2023/10/26 14:57:05;;;;;;;10.57;7.63;;;9.30;1.00;;;;;;9828754;30;20241;-80
2023/10/26 15:02:26;;;;;;;16.07;8.57;;;9.30;99.90;;;;;;9837304;30;20499;-83
2023/10/26 15:07:49;;;;;;;16.50;10.07;;;9.20;1.00;;;;;;9820163;30;20498;-80
2023/10/26 15:13:10;;;;;;;14.63;10.30;;;9.20;1.00;;;;;;9820865;30;20231;-80
2023/10/26 15:18:31;;;;;;;17.93;11.37;;;9.20;1.00;;;;;;9817443;30;20419;-78
2023/10/26 15:23:52;;;;;;;23.77;13.60;;;9.20;99.90;;;;;;9821077;30;20294;-77
2023/10/26 15:29:13;;;;;;;21.10;13.03;;;9.20;99.90;;;;;;9818317;30;20218;-79
2023/10/26 15:34:34;;;;;;;17.10;11.40;;;9.10;99.90;;;;;;9817810;30;20209;-80
2023/10/26 15:39:55;;;;;;;15.70;11.03;;;9.10;99.90;;;;;;9818332;30;20234;-79
2023/10/26 15:45:18;;;;;;;18.10;10.13;;;9.10;1.00;;;;;;9807867;30;20264;-80
2023/10/26 15:50:39;;;;;;;22.13;13.80;;;9.10;1.00;;;;;;9821331;30;20514;-78
2023/10/26 15:56:02;;;;;;;20.70;14.40;;;9.00;1.00;;;;;;9806067;30;20286;-79
2023/10/26 16:01:24;;;;;;;18.63;13.03;;;9.10;1.00;;;;;;9819673;30;20293;-81
2023/10/26 16:06:46;;;;;;;28.07;16.07;;;9.00;1.00;;;;;;9820410;30;20233;-79
2023/10/26 16:12:08;;;;;;;29.27;17.37;;;9.00;1.00;;;;;;9819393;30;20214;-79
2023/10/26 16:17:29;;;;;;;36.10;16.80;;;9.00;1.00;;;;;;9819128;30;20240;-79
2023/10/26 16:22:50;;;;;;;32.47;16.73;;;9.00;1.00;;;;;;9820024;30;20208;-80
2023/10/26 16:28:11;;;;;;;31.90;17.10;;;9.00;1.00;;;;;;9818512;30;20232;-81
2023/10/26 16:33:33;;;;;;;30.90;17.77;;;9.00;99.90;;;;;;9819875;30;20274;-80
2023/10/26 16:38:54;;;;;;;27.13;15.23;;;9.00;93.10;;;;;;9818746;30;20314;-79
2023/10/26 16:44:15;;;;;;;29.57;14.50;;;8.90;80.30;;;;;;9819118;30;20251;-81
2023/10/26 16:49:36;;;;;;;29.93;13.80;;;9.00;99.90;;;;;;9819576;30;20388;-80
2023/10/26 16:54:57;;;;;;;30.60;14.40;;;9.00;99.90;;;;;;9818295;30;20480;-78
2023/10/26 17:00:19;;;;;;;30.57;14.43;;;9.00;99.90;;;;;;9806354;30;20265;-77
2023/10/26 17:05:40;;;;;;;33.10;16.80;;;8.90;1.00;;;;;;9785121;30;20197;-78
2023/10/26 17:11:02;;;;;;;25.30;14.77;;;8.90;1.00;;;;;;9795685;30;20503;-80
2023/10/26 17:16:23;;;;;;;24.83;14.53;;;9.00;1.00;;;;;;9817495;30;20298;-78
2023/10/26 17:21:44;;;;;;;21.83;12.53;;;8.90;1.00;;;;;;9818540;30;20256;-76
2023/10/26 17:27:06;;;;;;;18.13;12.37;;;8.90;1.00;;;;;;9818070;30;20210;-78
2023/10/26 17:32:27;;;;;;;19.37;12.73;;;8.90;1.00;;;;;;9818549;30;20206;-78
2023/10/26 17:37:49;;;;;;;25.47;13.60;;;8.90;1.00;;;;;;9817225;30;20288;-79
2023/10/26 17:43:12;;;;;;;28.30;16.17;;;8.90;1.00;;;;;;9817736;30;20201;-81
2023/10/26 17:48:33;;;;;;;34.67;20.43;;;8.90;1.00;;;;;;9817880;30;20202;-81
2023/10/26 17:53:55;;;;;;;30.20;17.43;;;8.90;1.00;;;;;;9817400;30;20209;-80
2023/10/26 17:59:17;;;;;;;23.47;13.67;;;8.90;1.00;;;;;;9817527;30;20544;-81
2023/10/26 18:04:38;;;;;;;17.47;11.67;;;8.90;1.00;;;;;;9817675;30;20243;-81
2023/10/26 18:09:59;;;;;;;16.67;10.80;;;8.80;1.00;;;;;;9815546;30;20217;-80
2023/10/26 18:15:21;;;;;;;12.90;9.97;;;8.80;1.00;;;;;;9817475;30;20213;-80
2023/10/26 18:20:54;;;;;;;17.13;10.57;;;8.80;1.00;;;;;;9821718;30;20564;-81
2023/10/26 18:26:15;;;;;;;14.07;9.90;;;8.80;1.00;;;;;;9824022;30;20202;-80
2023/10/26 18:31:37;;;;;;;16.17;11.00;;;8.80;1.00;;;;;;9823822;30;20229;-79
2023/10/26 18:36:58;;;;;;;15.40;12.00;;;8.80;1.00;;;;;;9822837;30;20257;-81
2023/10/26 18:42:19;;;;;;;18.50;11.63;;;8.80;1.00;;;;;;9822749;30;20213;-81
2023/10/26 18:47:41;;;;;;;16.53;10.53;;;8.80;1.00;;;;;;9823487;30;20470;-81
2023/10/26 18:53:02;;;;;;;18.40;11.13;;;8.70;1.00;;;;;;9822671;30;20508;-79
2023/10/26 18:58:25;;;;;;;20.10;12.90;;;8.80;1.00;;;;;;9822171;30;20232;-80
2023/10/26 19:03:47;;;;;;;21.67;14.00;;;8.80;1.00;;;;;;9786632;30;20242;-80
2023/10/26 19:09:17;;;;;;;23.50;14.70;;;8.80;1.00;;;;;;9801562;30;20219;-79
2023/10/26 19:14:38;;;;;;;22.03;13.73;;;8.80;1.00;;;;;;9812992;30;20228;-78
2023/10/26 19:19:59;;;;;;;17.23;12.30;;;8.80;1.00;;;;;;9830246;30;20243;-79
2023/10/26 19:25:22;;;;;;;15.77;11.17;;;8.70;1.00;;;;;;9832126;30;20202;-79
2023/10/26 19:30:44;;;;;;;12.80;8.43;;;8.70;1.00;;;;;;9821282;30;20277;-80
2023/10/26 19:36:06;;;;;;;13.40;8.20;;;8.70;1.00;;;;;;9820165;30;20270;-79
2023/10/26 19:41:27;;;;;;;8.30;6.30;;;8.70;1.00;;;;;;9784787;30;20237;-79
2023/10/26 19:46:49;;;;;;;9.13;5.93;;;8.70;1.00;;;;;;9810058;30;20203;-80
2023/10/26 19:52:13;;;;;;;7.40;4.93;;;8.60;1.00;;;;;;9821122;30;20209;-79
2023/10/26 19:57:34;;;;;;;8.20;5.03;;;8.70;1.00;;;;;;9818309;30;20528;-79
2023/10/26 20:02:55;;;;;;;10.93;6.03;;;8.60;1.00;;;;;;9823761;30;20326;-79
2023/10/26 20:08:16;;;;;;;7.27;5.33;;;8.60;1.00;;;;;;9820451;30;20511;-80
2023/10/26 20:13:38;;;;;;;11.03;7.10;;;8.60;99.90;;;;;;9820407;30;20209;-80
2023/10/26 20:19:01;;;;;;;16.03;9.67;;;8.60;99.90;;;;;;9818701;30;20238;-80
2023/10/26 20:24:23;;;;;;;12.20;8.50;;;8.60;1.00;;;;;;9794827;30;20398;-79
2023/10/26 20:29:46;;;;;;;10.07;6.73;;;8.60;1.00;;;;;;9819036;30;20297;-79
2023/10/26 20:35:08;;;;;;;8.67;5.53;;;8.60;99.90;;;;;;9806033;30;20384;-80
2023/10/26 20:40:29;;;;;;;6.40;4.73;;;8.60;99.90;;;;;;9819321;30;20234;-79
2023/10/26 20:46:00;;;;;;;5.83;3.70;;;8.60;99.90;;;;;;9819359;30;20439;-80
2023/10/26 20:51:21;;;;;;;5.43;3.50;;;8.60;99.90;;;;;;9819357;30;20206;-78
2023/10/26 20:56:43;;;;;;;6.17;3.57;;;8.60;87.50;;;;;;9818278;30;20203;-80
2023/10/26 21:02:05;;;;;;;8.13;3.87;;;8.50;1.00;;;;;;9817781;30;20233;-80
2023/10/26 21:07:26;;;;;;;5.10;2.60;;;8.50;1.00;;;;;;9818549;30;20231;-80
2023/10/26 21:12:47;;;;;;;3.83;2.67;;;8.50;99.90;;;;;;9818778;30;20562;-80
2023/10/26 21:18:09;;;;;;;4.57;2.70;;;8.50;1.00;;;;;;9818057;30;20442;-80
2023/10/26 21:23:30;;;;;;;10.00;3.20;;;8.50;17.20;;;;;;9818657;30;20282;-80
2023/10/26 21:28:54;;;;;;;2.97;2.27;;;8.50;99.90;;;;;;9818531;30;20215;-79
2023/10/26 21:34:15;;;;;;;4.07;2.60;;;8.50;99.90;;;;;;9804645;30;20232;-79
2023/10/26 21:39:36;;;;;;;3.63;2.60;;;8.60;1.00;;;;;;9817072;30;20247;-79
2023/10/26 21:44:58;;;;;;;5.53;3.30;;;8.60;99.90;;;;;;9817699;30;20500;-80
2023/10/26 21:50:19;;;;;;;9.07;4.80;;;8.50;1.00;;;;;;9804859;30;20244;-81
2023/10/26 21:55:40;;;;;;;6.30;3.87;;;8.50;60.50;;;;;;9821481;30;20201;-78
2023/10/26 22:01:02;;;;;;;6.93;3.30;;;8.40;1.00;;;;;;9824047;30;20286;-79
2023/10/26 22:06:23;;;;;;;7.60;4.67;;;8.50;99.90;;;;;;9811003;30;20212;-80
2023/10/26 22:11:44;;;;;;;7.83;4.50;;;8.50;1.00;;;;;;9824627;30;20205;-78
2023/10/26 22:17:05;;;;;;;6.80;4.80;;;8.50;99.90;;;;;;9824287;30;20212;-77
2023/10/26 22:22:26;;;;;;;8.07;5.07;;;8.50;99.90;;;;;;9823141;30;20274;-79
2023/10/26 22:27:48;;;;;;;9.00;5.53;;;8.50;1.00;;;;;;9824391;30;20202;-79
2023/10/26 22:33:09;;;;;;;8.40;5.50;;;8.50;71.20;;;;;;9822780;30;20243;-79
2023/10/26 22:38:30;;;;;;;5.53;4.57;;;8.50;99.90;;;;;;9823687;30;20254;-81
2023/10/26 22:43:51;;;;;;;5.33;4.10;;;8.50;99.90;;;;;;9823517;30;20271;-80
2023/10/26 22:49:12;;;;;;;6.60;4.00;;;8.50;99.90;;;;;;9823337;30;20209;-80
2023/10/26 22:54:34;;;;;;;8.60;5.17;;;8.50;1.00;;;;;;9823268;30;20204;-80
2023/10/26 22:59:56;;;;;;;9.20;5.27;;;8.50;99.90;;;;;;9822429;30;20229;-80
2023/10/26 23:05:17;;;;;;;7.13;4.93;;;8.50;99.90;;;;;;9822284;30;20427;-80
2023/10/26 23:10:38;;;;;;;9.33;5.53;;;8.50;99.90;;;;;;9822566;30;20296;-78
2023/10/26 23:15:59;;;;;;;10.57;6.13;;;8.50;1.00;;;;;;9833513;30;20196;-79
2023/10/26 23:21:20;;;;;;;11.20;6.27;;;8.60;1.00;;;;;;9822280;30;20628;-80
2023/10/26 23:26:42;;;;;;;9.53;5.20;;;8.60;99.90;;;;;;9822005;30;20247;-79
2023/10/26 23:32:04;;;;;;;9.00;5.30;;;8.50;1.00;;;;;;9821473;30;20209;-80
2023/10/26 23:37:25;;;;;;;11.63;6.20;;;8.50;1.00;;;;;;9820897;30;20224;-79
2023/10/26 23:42:46;;;;;;;11.00;6.70;;;8.50;1.00;;;;;;9821751;30;20224;-80
2023/10/26 23:48:07;;;;;;;10.37;6.67;;;8.40;1.00;;;;;;9821624;30;20202;-79
2023/10/26 23:53:29;;;;;;;7.87;5.83;;;8.40;99.90;;;;;;9820330;30;20425;-79
2023/10/26 23:58:50;;;;;;;8.87;6.40;;;8.30;99.90;;;;;;9820535;30;20422;-80
